Bad Radkersburg, Austria
Current Conditions -  °F | °C
As of 5:00 PM on Saturday 20 Dec 2014 (Local Time) from LJMB Reporting Station
Clear Clear  
Wind Chill: 50°   Ceiling: Unl
Heat Index: 50°   Visibility: 6mi
Dew Point: 43°   Wind: 7mph
Humidity: 76%   Direction: 140°SE
Pressure: 30.09"   Gusts: NA
Location:  46.69°N, 15.99°E
Report Text: LJMB 201500Z 14006KT CAVOK 10/06 Q1019
Loading
Personal Weather Stations






























Interactive Weather Map New forecast layout! Learn more

10-Day Weather Forecast

Advertisements
Track Severe Weather on mobile